Time;durP1;ratioP1;P1;durP2;ratioP2;P2;SDS_P1;SDS_P2;PMS_P1;PMS_P2;Temp;Humidity;BMP_temperature;BMP_pressure;BME280_temperature;BME280_humidity;BME280_pressure;Samples;Min_cycle;Max_cycle;Signal;HPM_P1;HPM_P2
2023/03/24 00:01:27;;;;;;;0.10;0.10;;;;;;;7.67;67.53;98493.91;5002904;28;20041;-75
2023/03/24 00:03:54;;;;;;;0.10;0.10;;;;;;;7.69;67.60;98499.06;5002513;28;20096;-74
2023/03/24 00:06:21;;;;;;;0.10;0.10;;;;;;;7.71;67.46;98497.69;4971862;28;20047;-74
2023/03/24 00:08:47;;;;;;;0.10;0.10;;;;;;;7.67;67.56;98493.91;5006563;28;20056;-75
2023/03/24 00:11:17;;;;;;;0.20;0.20;;;;;;;7.69;67.39;98459.06;4987883;28;20409;-75
2023/03/24 00:13:45;;;;;;;0.10;0.10;;;;;;;7.66;67.45;98451.50;4986357;28;20073;-75
2023/03/24 00:16:15;;;;;;;0.10;0.10;;;;;;;7.69;67.63;98456.34;5006062;28;20054;-75
2023/03/24 00:18:42;;;;;;;0.10;0.10;;;;;;;7.70;67.50;98470.75;5005907;28;20112;-75
2023/03/24 00:21:10;;;;;;;0.10;0.10;;;;;;;7.69;67.62;98464.50;4984839;28;20426;-68
2023/03/24 00:23:36;;;;;;;0.10;0.10;;;;;;;7.69;67.83;98445.47;5003418;28;20050;-75
2023/03/24 00:26:06;;;;;;;0.10;0.10;;;;;;;7.69;67.77;98453.63;5006796;28;20664;-75
2023/03/24 00:28:35;;;;;;;0.10;0.10;;;;;;;7.73;67.54;98456.59;4985691;28;20038;-75
2023/03/24 00:31:04;;;;;;;0.10;0.10;;;;;;;7.76;67.63;98466.88;5003466;28;20050;-76
2023/03/24 00:33:33;;;;;;;0.10;0.10;;;;;;;7.75;67.51;98449.75;5019740;28;20049;-75
2023/03/24 00:36:01;;;;;;;0.10;0.10;;;;;;;7.72;67.52;98450.31;4987594;28;20046;-75
2023/03/24 00:38:27;;;;;;;0.10;0.10;;;;;;;7.69;67.55;98425.59;4984392;28;20046;-75
2023/03/24 00:40:54;;;;;;;0.10;0.10;;;;;;;7.71;67.73;98459.59;5003048;28;20197;-75
2023/03/24 00:43:21;;;;;;;0.10;0.10;;;;;;;7.72;67.61;98439.44;4991517;28;20137;-75
2023/03/24 00:45:47;;;;;;;0.10;0.10;;;;;;;7.70;67.63;98436.19;4981491;28;20077;-75
2023/03/24 00:48:14;;;;;;;0.10;0.10;;;;;;;7.66;67.63;98414.19;4984294;28;20042;-75
2023/03/24 00:50:45;;;;;;;0.10;0.10;;;;;;;7.66;67.79;98433.25;4966005;28;20465;-75
2023/03/24 00:53:14;;;;;;;0.10;0.10;;;;;;;7.68;67.92;98418.53;5003059;28;20058;-74
2023/03/24 00:55:41;;;;;;;0.10;0.10;;;;;;;7.62;67.85;98412.34;4966226;28;20272;-74
2023/03/24 00:58:07;;;;;;;0.10;0.10;;;;;;;7.58;68.07;98420.28;4984638;28;20120;-74
2023/03/24 01:00:34;;;;;;;0.10;0.10;;;;;;;7.62;68.12;98420.50;4985322;28;20093;-69
2023/03/24 01:03:02;;;;;;;0.10;0.10;;;;;;;7.56;68.11;98403.41;4985253;28;20069;-68
2023/03/24 01:05:29;;;;;;;0.10;0.10;;;;;;;7.59;68.23;98396.59;4984908;28;20053;-68
2023/03/24 01:07:57;;;;;;;;;;;;;;;7.61;68.18;98416.16;4983599;28;20121;-69
2023/03/24 01:10:26;;;;;;;0.20;0.10;;;;;;;7.59;68.19;98402.03;4983246;28;19988;-68
2023/03/24 01:12:54;;;;;;;0.13;0.13;;;;;;;7.56;68.33;98416.22;4986712;28;20054;-68
2023/03/24 01:15:23;;;;;;;0.10;0.10;;;;;;;7.50;68.46;98390.97;4985666;28;20058;-68
2023/03/24 01:17:52;;;;;;;0.15;0.15;;;;;;;7.57;68.47;98406.97;4983366;28;20054;-68
2023/03/24 01:20:19;;;;;;;0.10;0.10;;;;;;;7.58;68.07;98390.38;4980832;28;20066;-68
2023/03/24 01:22:45;;;;;;;0.10;0.10;;;;;;;7.60;68.14;98407.19;4964865;28;20054;-68
2023/03/24 01:25:17;;;;;;;0.10;0.10;;;;;;;7.62;68.03;98391.41;4992649;28;20100;-69
2023/03/24 01:27:47;;;;;;;0.10;0.10;;;;;;;7.70;67.93;98414.44;5007339;28;20061;-68
2023/03/24 01:30:15;;;;;;;0.10;0.10;;;;;;;7.73;67.71;98421.22;5004400;28;20504;-68
2023/03/24 01:32:42;;;;;;;0.10;0.10;;;;;;;7.66;67.88;98419.63;5007197;28;20440;-68
2023/03/24 01:35:10;;;;;;;0.10;0.10;;;;;;;7.64;67.98;98410.97;5006477;28;20535;-70
2023/03/24 01:37:37;;;;;;;0.10;0.10;;;;;;;7.64;67.72;98408.25;5004311;28;20424;-69
2023/03/24 01:40:10;;;;;;;0.10;0.10;;;;;;;7.66;67.63;98400.59;4987374;28;20425;-69
2023/03/24 01:42:38;;;;;;;0.10;0.10;;;;;;;7.73;67.68;98407.63;5004538;28;20425;-68
2023/03/24 01:45:49;;;;;;;0.10;0.10;;;;;;;7.71;67.93;98404.34;5006163;28;20064;-68
2023/03/24 01:48:19;;;;;;;0.10;0.10;;;;;;;7.62;68.22;98390.56;4964978;28;20153;-68
2023/03/24 01:50:51;;;;;;;0.10;0.10;;;;;;;7.65;68.10;98403.63;4992849;28;20516;-68
2023/03/24 01:53:17;;;;;;;0.10;0.10;;;;;;;7.63;68.29;98392.19;5006553;28;20175;-69
2023/03/24 01:55:46;;;;;;;0.10;0.10;;;;;;;7.62;68.60;98393.28;5009153;28;20050;-68
2023/03/24 01:58:16;;;;;;;0.10;0.10;;;;;;;7.56;68.84;98386.31;5004269;28;20477;-69
2023/03/24 02:01:16;;;;;;;0.10;0.10;;;;;;;7.46;69.38;98384.50;4998377;28;20045;-69
2023/03/24 02:04:18;;;;;;;0.10;0.10;;;;;;;7.43;69.70;98399.50;5010264;28;20149;-75
2023/03/24 02:06:45;;;;;;;0.10;0.10;;;;;;;7.35;69.77;98384.59;4989341;28;20049;-75
2023/03/24 02:09:13;;;;;;;0.10;0.10;;;;;;;7.27;70.11;98371.66;5002782;28;20239;-74
2023/03/24 02:11:40;;;;;;;0.10;0.10;;;;;;;7.30;70.38;98386.56;5004689;28;20067;-74
2023/03/24 02:14:11;;;;;;;0.10;0.10;;;;;;;7.27;70.45;98374.38;5008819;28;20131;-75
2023/03/24 02:16:51;;;;;;;0.10;0.10;;;;;;;7.29;70.87;98374.06;4988402;28;20145;-75
2023/03/24 02:20:03;;;;;;;0.10;0.10;;;;;;;7.27;70.50;98362.69;5004116;28;20049;-75
2023/03/24 02:22:55;;;;;;;0.10;0.10;;;;;;;7.25;70.67;98368.38;4991620;28;20512;-75
2023/03/24 02:25:55;;;;;;;0.20;0.20;;;;;;;7.26;70.71;98355.63;5004635;28;20074;-75
2023/03/24 02:28:34;;;;;;;0.10;0.10;;;;;;;7.29;70.62;98358.59;4985901;28;20076;-75
2023/03/24 02:31:32;;;;;;;0.10;0.10;;;;;;;7.30;70.52;98346.59;5003621;28;20054;-76
2023/03/24 02:34:40;;;;;;;0.10;0.10;;;;;;;7.40;70.31;98347.56;5004473;28;20054;-75
2023/03/24 02:37:27;;;;;;;0.10;0.10;;;;;;;7.40;70.33;98347.56;5006900;28;20504;-75
2023/03/24 02:40:23;;;;;;;0.10;0.10;;;;;;;7.43;70.24;98355.19;4999934;28;20561;-76
2023/03/24 02:43:01;;;;;;;0.10;0.10;;;;;;;7.46;70.14;98333.63;4968050;28;20050;-75
2023/03/24 02:45:33;;;;;;;;;;;;;;;7.46;70.03;98344.50;4985892;28;20065;-69
2023/03/24 02:48:16;;;;;;;0.10;0.10;;;;;;;7.49;69.76;98340.41;4988405;28;19925;-69
2023/03/24 02:50:50;;;;;;;0.10;0.10;;;;;;;7.47;69.86;98324.38;4984565;28;20081;-68
2023/03/24 02:53:23;;;;;;;0.10;0.10;;;;;;;7.47;69.97;98321.66;4984761;28;20047;-69
2023/03/24 02:56:15;;;;;;;0.10;0.10;;;;;;;7.46;69.86;98319.25;4979726;28;20395;-68
2023/03/24 02:58:48;;;;;;;0.10;0.10;;;;;;;7.46;70.17;98322.75;4964800;28;20054;-69
2023/03/24 03:01:19;;;;;;;0.10;0.10;;;;;;;7.46;70.18;98311.09;4969647;28;20088;-68
2023/03/24 03:04:08;;;;;;;0.10;0.10;;;;;;;7.42;70.02;98315.50;4968387;28;20042;-68
2023/03/24 03:06:39;;;;;;;0.10;0.10;;;;;;;7.44;70.25;98321.44;4984718;28;20605;-69
2023/03/24 03:09:08;;;;;;;0.10;0.10;;;;;;;7.42;70.29;98310.84;4970082;28;20074;-68
2023/03/24 03:11:38;;;;;;;0.10;0.10;;;;;;;7.46;70.16;98303.72;4989291;28;20058;-68
2023/03/24 03:14:08;;;;;;;0.10;0.10;;;;;;;7.48;70.13;98295.28;4967412;28;20101;-68
2023/03/24 03:16:38;;;;;;;0.10;0.10;;;;;;;7.47;70.16;98297.16;4967211;28;20055;-69
2023/03/24 03:19:09;;;;;;;0.10;0.10;;;;;;;7.48;70.29;98311.59;4983825;28;20449;-68
2023/03/24 03:21:41;;;;;;;0.10;0.10;;;;;;;7.52;70.16;98305.28;4985212;28;20469;-69
2023/03/24 03:24:12;;;;;;;0.10;0.10;;;;;;;7.57;70.02;98295.44;4984102;28;20367;-69
2023/03/24 03:26:42;;;;;;;0.10;0.10;;;;;;;7.64;69.61;98280.38;4984117;28;20046;-69
2023/03/24 03:29:11;;;;;;;0.10;0.10;;;;;;;7.70;69.46;98302.88;4986104;28;20046;-69
2023/03/24 03:31:41;;;;;;;0.10;0.10;;;;;;;7.73;69.42;98282.47;4988389;28;20424;-70
2023/03/24 03:34:15;;;;;;;0.10;0.10;;;;;;;7.75;69.12;98277.53;4998164;28;20517;-69
2023/03/24 03:36:48;;;;;;;0.20;0.20;;;;;;;7.76;69.17;98279.94;5003807;28;20085;-69
2023/03/24 03:39:21;;;;;;;0.10;0.10;;;;;;;7.75;69.04;98264.72;5006561;28;20452;-75
2023/03/24 03:41:49;;;;;;;0.10;0.10;;;;;;;7.82;69.05;98288.84;5005357;28;20165;-75
2023/03/24 03:44:15;;;;;;;0.10;0.10;;;;;;;7.83;68.79;98285.03;4980433;28;20564;-75
2023/03/24 03:46:42;;;;;;;0.10;0.10;;;;;;;7.81;69.20;98284.50;4983938;28;20128;-76
2023/03/24 03:49:12;;;;;;;0.10;0.10;;;;;;;7.85;69.07;98295.63;4983977;28;20046;-75
2023/03/24 03:51:39;;;;;;;0.10;0.10;;;;;;;7.84;69.05;98296.72;4985288;28;20046;-75
2023/03/24 03:54:09;;;;;;;0.10;0.10;;;;;;;7.83;69.25;98282.28;4969896;28;20065;-77
2023/03/24 03:56:37;;;;;;;0.10;0.10;;;;;;;7.76;70.86;98290.03;4969977;28;20145;-75
2023/03/24 03:59:27;;;;;;;0.10;0.10;;;;;;;7.54;73.48;98285.16;4980993;28;20090;-75
2023/03/24 04:01:54;;;;;;;0.10;0.10;;;;;;;7.38;74.91;98288.06;4984062;28;20054;-73
2023/03/24 04:05:03;;;;;;;0.10;0.10;;;;;;;7.27;75.10;98286.56;4982300;28;20058;-74
2023/03/24 04:08:10;;;;;;;0.10;0.10;;;;;;;7.29;75.03;98292.50;4982243;28;20050;-74
2023/03/24 04:11:39;;;;;;;0.10;0.10;;;;;;;7.31;75.07;98287.59;4983622;28;20066;-75
2023/03/24 04:14:34;;;;;;;0.38;0.20;;;;;;;7.35;75.28;98284.00;4986824;28;20050;-74
2023/03/24 04:17:33;;;;;;;0.10;0.10;;;;;;;7.30;75.09;98259.59;5004287;28;20049;-68
2023/03/24 04:20:11;;;;;;;0.10;0.10;;;;;;;7.35;75.53;98286.72;5002943;28;20068;-69
2023/03/24 04:22:55;;;;;;;0.20;0.20;;;;;;;7.30;75.85;98272.38;5002908;28;20057;-68
2023/03/24 04:25:28;;;;;;;0.10;0.10;;;;;;;7.29;76.24;98273.47;5006976;28;20108;-69
2023/03/24 04:28:03;;;;;;;0.10;0.10;;;;;;;7.26;77.00;98271.34;5005817;28;20046;-69
2023/03/24 04:30:39;;;;;;;0.10;0.10;;;;;;;7.19;78.51;98277.94;5003257;28;20045;-68
2023/03/24 04:33:16;;;;;;;0.10;0.10;;;;;;;7.08;79.37;98265.56;4998436;28;20053;-68
2023/03/24 04:35:51;;;;;;;0.10;0.10;;;;;;;7.00;80.58;98274.34;4981649;28;20529;-69
2023/03/24 04:38:27;;;;;;;0.10;0.10;;;;;;;6.93;81.33;98266.53;4984058;28;20108;-68
2023/03/24 04:41:08;;;;;;;0.10;0.10;;;;;;;6.90;81.85;98275.25;4989881;28;20541;-68
2023/03/24 04:43:37;;;;;;;0.10;0.10;;;;;;;6.84;82.70;98265.56;4968249;28;20058;-69
2023/03/24 04:46:08;;;;;;;0.10;0.10;;;;;;;6.83;82.98;98264.72;4984368;28;20042;-68
2023/03/24 04:49:01;;;;;;;0.10;0.10;;;;;;;6.79;84.08;98259.09;4982098;28;20046;-69
2023/03/24 04:51:32;;;;;;;0.10;0.10;;;;;;;6.70;84.80;98266.22;4984755;28;20129;-68
2023/03/24 04:54:15;;;;;;;0.10;0.10;;;;;;;6.65;85.49;98258.13;4983741;28;20053;-68
2023/03/24 04:56:50;;;;;;;0.10;0.10;;;;;;;6.61;85.88;98266.03;4965808;28;20046;-68
2023/03/24 04:59:37;;;;;;;0.10;0.10;;;;;;;6.59;86.03;98246.50;5001051;28;20053;-68
2023/03/24 05:02:06;;;;;;;0.10;0.10;;;;;;;6.70;86.12;98262.69;5000305;28;20068;-72
2023/03/24 05:04:38;;;;;;;0.10;0.10;;;;;;;6.74;85.95;98263.75;4988498;28;20050;-72
2023/03/24 05:07:31;;;;;;;0.10;0.10;;;;;;;6.71;86.36;98258.88;5001877;28;20165;-73
2023/03/24 05:10:00;;;;;;;0.10;0.10;;;;;;;6.73;86.39;98267.56;5005828;28;20049;-73
2023/03/24 05:12:26;;;;;;;0.10;0.10;;;;;;;6.73;86.39;98267.56;5007344;28;20421;-73
2023/03/24 05:15:16;;;;;;;0.10;0.10;;;;;;;6.72;86.35;98269.47;5003174;28;20046;-72
2023/03/24 05:17:44;;;;;;;;;;;;;;;6.69;87.00;98261.06;5005717;28;20114;-73
2023/03/24 05:20:11;;;;;;;0.10;0.10;;;;;;;6.67;87.10;98273.03;4971921;28;20347;-73
2023/03/24 05:22:40;;;;;;;0.10;0.10;;;;;;;6.57;87.41;98264.19;5006018;28;20054;-72
2023/03/24 05:25:08;;;;;;;0.10;0.10;;;;;;;6.60;87.99;98261.72;5005998;28;20049;-72
2023/03/24 05:27:34;;;;;;;0.10;0.10;;;;;;;6.60;88.21;98260.88;4990167;28;20137;-72
2023/03/24 05:30:14;;;;;;;0.10;0.10;;;;;;;6.59;88.20;98273.66;4969612;28;20289;-72
2023/03/24 05:32:41;;;;;;;0.10;0.10;;;;;;;6.57;88.45;98267.72;4987365;28;20149;-72
2023/03/24 05:35:09;;;;;;;0.10;0.10;;;;;;;6.56;89.02;98282.41;4988976;28;20043;-72
2023/03/24 05:37:35;;;;;;;0.10;0.10;;;;;;;6.53;89.81;98280.22;4980824;28;20045;-73
2023/03/24 05:40:03;;;;;;;;;;;;;;;6.45;90.47;98267.28;4990240;28;20046;-73
2023/03/24 05:42:50;;;;;;;0.10;0.10;;;;;;;6.41;91.08;98263.53;4996479;28;19933;-73
2023/03/24 05:45:18;;;;;;;0.10;0.10;;;;;;;6.39;91.36;98270.00;5008006;28;20468;-72
2023/03/24 05:47:45;;;;;;;0.10;0.10;;;;;;;6.39;91.71;98263.78;4973762;28;20046;-72
2023/03/24 05:50:13;;;;;;;0.10;0.10;;;;;;;6.43;91.79;98269.47;5002435;28;20068;-74
2023/03/24 05:52:40;;;;;;;0.10;0.10;;;;;;;6.45;91.74;98272.72;5002607;28;20057;-73
2023/03/24 05:55:25;;;;;;;0.10;0.10;;;;;;;6.45;91.68;98264.56;5005150;28;20551;-73
2023/03/24 05:58:00;;;;;;;0.10;0.10;;;;;;;6.46;91.71;98261.53;4990420;28;20050;-72
2023/03/24 06:00:47;;;;;;;0.10;0.10;;;;;;;6.51;91.65;98271.56;5004073;28;20054;-72
2023/03/24 06:03:22;;;;;;;0.10;0.10;;;;;;;6.53;91.33;98266.66;4969927;28;20069;-73
2023/03/24 06:06:00;;;;;;;0.10;0.10;;;;;;;6.56;91.42;98265.28;4997280;28;20510;-72
2023/03/24 06:08:27;;;;;;;0.10;0.10;;;;;;;6.59;91.25;98262.81;5002648;28;20042;-72
2023/03/24 06:11:01;;;;;;;0.20;0.20;;;;;;;6.70;90.96;98265.41;4998369;28;20123;-73
2023/03/24 06:13:27;;;;;;;0.20;0.20;;;;;;;6.77;90.64;98269.41;5002366;28;20046;-72
2023/03/24 06:15:57;;;;;;;0.20;0.20;;;;;;;6.86;90.38;98249.78;4996106;28;20054;-72
2023/03/24 06:18:33;;;;;;;0.10;0.10;;;;;;;6.87;90.21;98264.97;4994521;28;20054;-72
2023/03/24 06:21:08;;;;;;;0.10;0.10;;;;;;;6.72;90.12;98242.31;4991823;28;20058;-72
2023/03/24 06:23:35;;;;;;;0.10;0.10;;;;;;;6.72;90.70;98260.53;4988689;28;20149;-73
2023/03/24 06:26:11;;;;;;;0.20;0.20;;;;;;;6.66;91.80;98248.91;4994224;28;20064;-72
2023/03/24 06:28:57;;;;;;;0.20;0.20;;;;;;;6.50;92.35;98248.22;5002653;28;20065;-72
2023/03/24 06:31:29;;;;;;;0.17;0.17;;;;;;;6.48;93.33;98258.56;4996115;28;20093;-72
2023/03/24 06:33:55;;;;;;;0.10;0.10;;;;;;;6.47;94.00;98252.31;4992588;28;20042;-72
2023/03/24 06:36:24;;;;;;;0.10;0.10;;;;;;;6.46;94.49;98256.13;5001919;28;20061;-73
2023/03/24 06:38:51;;;;;;;0.10;0.10;;;;;;;6.46;94.82;98252.59;4995028;28;20540;-72
2023/03/24 06:41:20;;;;;;;0.20;0.20;;;;;;;6.41;95.30;98267.03;5002070;28;20053;-72
2023/03/24 06:43:50;;;;;;;0.20;0.20;;;;;;;6.44;95.73;98252.88;4993875;28;20149;-73
2023/03/24 06:46:16;;;;;;;0.10;0.10;;;;;;;6.51;96.18;98249.84;4999969;28;20046;-69
2023/03/24 06:48:45;;;;;;;0.20;0.20;;;;;;;6.48;96.18;98262.09;4990042;28;20137;-68
2023/03/24 06:51:12;;;;;;;0.20;0.20;;;;;;;6.47;96.17;98254.22;4976268;28;20041;-69
2023/03/24 06:53:42;;;;;;;0.20;0.20;;;;;;;6.45;96.23;98270.00;4992495;28;20522;-69
2023/03/24 06:56:15;;;;;;;0.10;0.10;;;;;;;6.43;96.33;98251.25;4991937;28;20048;-69
2023/03/24 06:58:45;;;;;;;0.20;0.20;;;;;;;6.43;96.17;98253.19;4986830;28;20052;-69
2023/03/24 07:01:19;;;;;;;0.10;0.10;;;;;;;6.45;96.50;98246.34;4992409;28;20050;-69
2023/03/24 07:03:53;;;;;;;0.10;0.10;;;;;;;6.52;96.07;98254.16;4731555;28;10000753;-69
2023/03/24 07:06:38;;;;;;;0.20;0.20;;;;;;;6.56;95.74;98257.13;4981382;28;20346;-69
2023/03/24 07:09:13;;;;;;;0.10;0.10;;;;;;;6.51;95.36;98228.09;4976196;28;20324;-69
2023/03/24 07:11:40;;;;;;;0.20;0.20;;;;;;;6.72;95.00;98247.72;4984402;28;20050;-69
2023/03/24 07:14:06;;;;;;;0.10;0.10;;;;;;;6.78;94.60;98237.63;4992479;28;20053;-69
2023/03/24 07:16:34;;;;;;;0.10;0.10;;;;;;;6.82;94.06;98252.25;4967542;28;20441;-69
2023/03/24 07:19:14;;;;;;;0.17;0.17;;;;;;;6.83;93.44;98247.63;4985710;28;20053;-68
2023/03/24 07:21:48;;;;;;;0.20;0.20;;;;;;;6.86;93.43;98252.50;4990473;28;20312;-74
2023/03/24 07:24:19;;;;;;;0.10;0.10;;;;;;;6.87;93.16;98246.78;5006212;28;20141;-74
2023/03/24 07:26:57;;;;;;;0.20;0.20;;;;;;;6.87;93.18;98249.50;4987885;28;20045;-68
2023/03/24 07:29:24;;;;;;;0.13;0.13;;;;;;;6.86;93.08;98258.72;5006231;28;20046;-68
2023/03/24 07:32:13;;;;;;;0.10;0.10;;;;;;;6.86;93.19;98258.72;5002343;28;20050;-68
2023/03/24 07:34:42;;;;;;;0.10;0.10;;;;;;;6.83;93.14;98258.50;4992627;28;20049;-68
2023/03/24 07:37:08;;;;;;;0.10;0.10;;;;;;;6.78;93.50;98260.16;4979824;28;20537;-68
2023/03/24 07:39:36;;;;;;;0.10;0.10;;;;;;;6.80;93.67;98268.03;4991868;28;20050;-68
2023/03/24 07:42:02;;;;;;;0.10;0.10;;;;;;;6.75;93.80;98244.44;4992303;28;20057;-68
2023/03/24 07:44:51;;;;;;;0.10;0.10;;;;;;;6.73;94.27;98268.38;4967331;28;20057;-68
2023/03/24 07:47:18;;;;;;;0.10;0.10;;;;;;;6.72;94.68;98268.66;4985861;28;20102;-68
2023/03/24 07:49:45;;;;;;;0.20;0.20;;;;;;;6.69;95.05;98261.06;4983093;28;20050;-68
2023/03/24 07:52:12;;;;;;;0.10;0.10;;;;;;;6.74;95.27;98261.03;4952557;28;20105;-69
2023/03/24 07:54:43;;;;;;;0.10;0.10;;;;;;;6.69;95.59;98267.31;4994663;28;20146;-69
2023/03/24 07:57:16;;;;;;;0.10;0.10;;;;;;;6.69;95.74;98274.66;4994322;28;20069;-73
2023/03/24 07:59:42;;;;;;;0.20;0.20;;;;;;;6.69;95.63;98274.66;5000211;28;20421;-73
2023/03/24 08:02:30;;;;;;;0.10;0.10;;;;;;;6.73;95.73;98275.72;4999640;28;20038;-73
2023/03/24 08:05:01;;;;;;;0.10;0.10;;;;;;;6.73;95.90;98281.94;5004511;28;20053;-73
2023/03/24 08:07:52;;;;;;;0.10;0.10;;;;;;;6.75;95.70;98284.38;5003855;28;20513;-68
2023/03/24 08:10:22;;;;;;;0.20;0.20;;;;;;;6.80;95.82;98287.03;5001010;28;20134;-68
2023/03/24 08:12:48;;;;;;;0.20;0.20;;;;;;;6.83;95.69;98275.59;4987009;28;20073;-68
2023/03/24 08:15:15;;;;;;;0.10;0.10;;;;;;;6.95;95.43;98286.09;4993463;28;20422;-68
2023/03/24 08:17:41;;;;;;;0.20;0.20;;;;;;;7.00;95.11;98285.22;5003403;28;20085;-68
2023/03/24 08:20:13;;;;;;;0.10;0.10;;;;;;;7.01;94.81;98284.09;4985700;28;20518;-68
2023/03/24 08:22:40;;;;;;;0.17;0.17;;;;;;;7.06;94.87;98282.16;4996489;28;20061;-68
2023/03/24 08:25:07;;;;;;;0.20;0.20;;;;;;;7.11;94.60;98285.94;5005217;28;20273;-68
2023/03/24 08:27:36;;;;;;;0.20;0.20;;;;;;;7.17;94.67;98274.69;4988592;28;20057;-68
2023/03/24 08:30:03;;;;;;;0.20;0.20;;;;;;;7.16;94.48;98288.59;5000722;28;20054;-68
2023/03/24 08:32:29;;;;;;;0.10;0.10;;;;;;;7.11;94.29;98292.16;4993488;28;20064;-68
2023/03/24 08:34:57;;;;;;;0.10;0.10;;;;;;;7.06;94.02;98263.13;5009409;28;20483;-68
2023/03/24 08:37:23;;;;;;;0.10;0.10;;;;;;;7.13;93.81;98270.94;5007224;28;20065;-68
2023/03/24 08:39:49;;;;;;;0.20;0.20;;;;;;;7.24;93.84;98277.06;5002168;28;20068;-68
2023/03/24 08:42:15;;;;;;;0.20;0.20;;;;;;;7.28;93.33;98274.56;5007862;28;20046;-69
2023/03/24 08:44:43;;;;;;;0.20;0.20;;;;;;;7.21;92.92;98264.06;4994889;28;20054;-68
2023/03/24 08:47:09;;;;;;;0.20;0.20;;;;;;;7.43;92.61;98284.47;4972791;28;20536;-68
2023/03/24 08:49:39;;;;;;;0.20;0.20;;;;;;;7.57;92.23;98284.56;5003910;28;20056;-74
2023/03/24 08:52:05;;;;;;;0.20;0.20;;;;;;;7.69;91.13;98282.22;5009025;28;20472;-73
2023/03/24 08:54:35;;;;;;;0.20;0.20;;;;;;;7.68;90.82;98285.22;5009872;28;20054;-74
2023/03/24 08:57:10;;;;;;;0.10;0.10;;;;;;;7.63;90.01;98281.47;5010460;28;20058;-73
2023/03/24 08:59:36;;;;;;;0.20;0.20;;;;;;;7.60;89.93;98290.22;5006305;28;20049;-73
2023/03/24 09:02:03;;;;;;;0.20;0.20;;;;;;;7.65;90.08;98289.38;5008564;28;20056;-72
2023/03/24 09:04:29;;;;;;;;;;;;;;;7.75;90.00;98289.22;5009629;28;20053;-73
2023/03/24 09:06:58;;;;;;;0.20;0.20;;;;;;;7.70;88.48;98292.00;5009079;28;20023;-72
2023/03/24 09:09:26;;;;;;;0.10;0.10;;;;;;;7.63;88.73;98291.53;5005074;28;20046;-73
2023/03/24 09:11:52;;;;;;;0.20;0.20;;;;;;;7.50;88.92;98276.75;5001169;28;20140;-72
2023/03/24 09:14:18;;;;;;;0.10;0.10;;;;;;;7.55;88.88;98294.94;4968471;28;20505;-72
2023/03/24 09:16:44;;;;;;;0.20;0.20;;;;;;;7.49;89.03;98286.00;5005505;28;20528;-73
2023/03/24 09:19:12;;;;;;;0.10;0.10;;;;;;;7.41;89.02;98290.19;4979286;28;20054;-72
2023/03/24 09:21:40;;;;;;;0.15;0.15;;;;;;;7.46;89.43;98295.56;4996027;28;20425;-72
2023/03/24 09:24:06;;;;;;;0.10;0.10;;;;;;;7.43;89.00;98287.19;4999864;28;20038;-73
2023/03/24 09:26:33;;;;;;;0.20;0.20;;;;;;;7.47;89.12;98299.91;4997961;28;20362;-73
2023/03/24 09:28:59;;;;;;;0.10;0.10;;;;;;;7.42;89.40;98296.47;4997375;28;20045;-72
2023/03/24 09:31:26;;;;;;;0.10;0.10;;;;;;;7.43;89.36;98307.03;4982817;28;20054;-72
2023/03/24 09:33:52;;;;;;;0.10;0.10;;;;;;;7.47;89.57;98308.06;5002909;28;20053;-72
2023/03/24 09:36:19;;;;;;;0.20;0.20;;;;;;;7.58;89.63;98305.22;4978818;28;20041;-72
2023/03/24 09:38:45;;;;;;;;;;;;;;;7.55;89.22;98309.31;4994699;28;20599;-72
2023/03/24 09:41:17;;;;;;;0.10;0.10;;;;;;;7.50;89.10;98309.41;5013279;28;19930;-72
2023/03/24 09:43:48;;;;;;;0.20;0.20;;;;;;;7.48;89.21;98317.84;4991232;28;20408;-72
2023/03/24 09:46:27;;;;;;;0.20;0.20;;;;;;;7.47;89.16;98318.13;4996681;28;20517;-71
2023/03/24 09:48:58;;;;;;;0.20;0.20;;;;;;;7.54;89.46;98315.84;4995032;28;20129;-72
2023/03/24 09:51:27;;;;;;;0.10;0.10;;;;;;;7.63;89.14;98316.84;4993161;28;20058;-72
2023/03/24 09:54:03;;;;;;;0.20;0.20;;;;;;;7.73;88.44;98328.72;4994161;28;20572;-72
2023/03/24 09:56:32;;;;;;;0.10;0.10;;;;;;;7.73;87.97;98323.28;4997602;28;20652;-73
2023/03/24 09:59:05;;;;;;;0.15;0.10;;;;;;;7.64;88.24;98333.97;4998581;28;20045;-71
2023/03/24 10:01:32;;;;;;;0.10;0.10;;;;;;;7.56;88.57;98327.25;4998820;28;20057;-67
2023/03/24 10:03:59;;;;;;;0.10;0.10;;;;;;;7.48;88.85;98326.00;4996592;28;20054;-67
2023/03/24 10:06:30;;;;;;;0.10;0.10;;;;;;;7.52;88.93;98328.94;4997243;28;20048;-68
2023/03/24 10:09:09;;;;;;;0.10;0.10;;;;;;;7.52;88.84;98329.78;4998568;28;20046;-68
2023/03/24 10:11:42;;;;;;;0.20;0.20;;;;;;;7.53;88.58;98319.69;4993886;28;20050;-68
2023/03/24 10:14:21;;;;;;;0.17;0.17;;;;;;;7.46;88.85;98328.19;4995730;28;20044;-68
2023/03/24 10:16:53;;;;;;;0.20;0.20;;;;;;;7.40;89.21;98339.41;4997107;28;20270;-73
2023/03/24 10:19:31;;;;;;;0.10;0.10;;;;;;;7.33;89.32;98346.03;4997116;28;20038;-74
2023/03/24 10:22:04;;;;;;;0.10;0.10;;;;;;;7.34;89.33;98350.38;5000163;28;20082;-73
2023/03/24 10:24:38;;;;;;;0.10;0.10;;;;;;;7.34;89.20;98347.63;4995848;28;20050;-73
2023/03/24 10:27:17;;;;;;;0.10;0.10;;;;;;;7.37;89.15;98338.09;4993354;28;20068;-68
2023/03/24 10:29:45;;;;;;;0.10;0.10;;;;;;;7.37;88.86;98340.81;5000822;28;20053;-68
2023/03/24 10:32:21;;;;;;;0.10;0.10;;;;;;;7.32;88.65;98347.13;4995098;28;20042;-68
2023/03/24 10:34:54;;;;;;;0.17;0.17;;;;;;;7.38;89.06;98345.16;4991009;28;20129;-68
2023/03/24 10:37:21;;;;;;;0.20;0.20;;;;;;;7.43;88.71;98344.31;4658117;28;10000408;-68
2023/03/24 10:39:47;;;;;;;;;;;;;;;7.51;88.41;98341.75;4990342;28;20568;-68
2023/03/24 10:42:20;;;;;;;0.10;0.10;;;;;;;7.54;87.56;98336.81;5006174;28;19925;-68
2023/03/24 10:44:48;;;;;;;0.38;0.20;;;;;;;7.55;87.44;98346.59;4989057;28;20050;-68
2023/03/24 10:47:18;;;;;;;0.20;0.20;;;;;;;7.55;87.49;98341.97;4988076;28;20046;-68
2023/03/24 10:49:52;;;;;;;0.20;0.20;;;;;;;7.74;87.07;98338.50;4990584;28;20050;-73
2023/03/24 10:52:19;;;;;;;0.20;0.20;;;;;;;7.82;86.17;98350.63;4992406;28;20046;-73
2023/03/24 10:54:56;;;;;;;0.20;0.20;;;;;;;7.89;85.36;98359.25;5003395;28;20159;-73
2023/03/24 10:57:23;;;;;;;0.20;0.20;;;;;;;8.03;84.65;98357.41;5002974;28;20049;-73
2023/03/24 10:59:54;;;;;;;0.20;0.20;;;;;;;8.15;83.42;98351.53;4982809;28;20517;-72
2023/03/24 11:02:24;;;;;;;0.10;0.10;;;;;;;8.09;83.23;98350.78;4992662;28;20141;-73
2023/03/24 11:04:56;;;;;;;0.10;0.10;;;;;;;8.15;82.85;98356.19;5004074;28;20171;-73
2023/03/24 11:07:28;;;;;;;0.15;0.15;;;;;;;8.12;82.86;98362.19;5007091;28;20045;-73
2023/03/24 11:10:03;;;;;;;0.10;0.10;;;;;;;8.10;82.03;98365.22;5003237;28;20481;-74
2023/03/24 11:12:31;;;;;;;0.20;0.20;;;;;;;8.09;81.59;98369.84;5001191;28;20049;-74
2023/03/24 11:15:02;;;;;;;;;;;;;;;8.11;81.70;98366.00;4994392;28;20070;-73
2023/03/24 11:17:28;;;;;;;0.20;0.20;;;;;;;8.14;81.66;98376.34;4991978;28;19932;-74
2023/03/24 11:19:56;;;;;;;0.20;0.20;;;;;;;8.13;81.42;98366.56;4991257;28;20054;-73
2023/03/24 11:22:25;;;;;;;0.30;0.30;;;;;;;8.41;80.89;98372.94;5002352;28;20147;-73
2023/03/24 11:24:55;;;;;;;0.30;0.30;;;;;;;8.97;79.19;98381.34;4994220;28;20519;-73
2023/03/24 11:27:22;;;;;;;0.32;0.32;;;;;;;9.44;76.17;98369.59;4993560;28;20045;-75
2023/03/24 11:29:55;;;;;;;0.20;0.20;;;;;;;9.72;73.84;98367.72;4992347;28;21115;-68
2023/03/24 11:32:24;;;;;;;0.30;0.30;;;;;;;9.48;74.49;98365.97;4995264;28;20037;-69
2023/03/24 11:35:00;;;;;;;0.20;0.20;;;;;;;9.57;74.55;98368.03;4992483;28;20545;-69
2023/03/24 11:37:32;;;;;;;0.40;0.40;;;;;;;9.88;73.46;98378.31;4991100;28;20057;-68
2023/03/24 11:40:15;;;;;;;0.30;0.30;;;;;;;10.43;70.81;98373.88;4995124;28;20052;-69
2023/03/24 11:42:44;;;;;;;0.20;0.20;;;;;;;12.11;64.79;98378.28;4992549;28;20053;-69
2023/03/24 11:45:22;;;;;;;0.20;0.20;;;;;;;11.47;64.45;98372.09;4987158;28;20069;-68
2023/03/24 11:47:51;;;;;;;0.20;0.20;;;;;;;10.80;67.78;98384.75;4991831;28;20053;-69
2023/03/24 11:50:21;;;;;;;0.20;0.20;;;;;;;10.38;69.71;98376.69;4998642;28;20077;-69
2023/03/24 11:52:51;;;;;;;0.20;0.20;;;;;;;10.02;70.30;98383.75;4997590;28;20049;-69
2023/03/24 11:55:24;;;;;;;0.17;0.17;;;;;;;9.78;71.55;98382.06;4995265;28;20045;-73
2023/03/24 11:57:58;;;;;;;0.20;0.20;;;;;;;9.74;71.87;98389.22;4993593;28;20046;-74
2023/03/24 12:00:29;;;;;;;0.20;0.20;;;;;;;9.63;72.12;98392.19;4995009;28;20536;-75
2023/03/24 12:03:18;;;;;;;0.28;0.28;;;;;;;9.50;72.45;98401.94;4997027;28;20057;-69
2023/03/24 12:05:49;;;;;;;0.20;0.20;;;;;;;9.33;72.66;98388.09;4966100;28;20072;-68
2023/03/24 12:08:32;;;;;;;0.10;0.10;;;;;;;9.17;73.43;98395.75;4992461;28;20057;-73
2023/03/24 12:11:10;;;;;;;0.10;0.10;;;;;;;9.05;73.39;98390.75;5000210;28;20046;-69